Time;durP1;ratioP1;P1;durP2;ratioP2;P2;SDS_P1;SDS_P2;PMS_P1;PMS_P2;Temp;Humidity;BMP_temperature;BMP_pressure;BME280_temperature;BME280_humidity;BME280_pressure;Samples;Min_cycle;Max_cycle;Signal;HPM_P1;HPM_P2
2022/04/02 00:01:39;;;;;;;5.72;5.32;;;;;;;;;;4893641;29;20452;-83
2022/04/02 00:04:05;;;;;;;7.28;6.47;;;;;;;;;;4905935;29;20201;-80
2022/04/02 00:06:31;;;;;;;6.07;5.63;;;;;;;;;;4899411;29;20204;-80
2022/04/02 00:09:03;;;;;;;4.95;4.65;;;;;;;;;;4916727;29;20305;-82
2022/04/02 00:11:50;;;;;;;6.20;5.75;;;;;;;;;;4898458;29;20263;-82
2022/04/02 00:14:17;;;;;;;6.57;6.28;;;;;;;;;;4882328;29;20216;-82
2022/04/02 00:16:43;;;;;;;5.50;5.20;;;;;;;;;;4889027;29;20192;-81
2022/04/02 00:19:09;;;;;;;8.05;5.50;;;;;;;;;;4897998;29;20193;-81
2022/04/02 00:21:37;;;;;;;6.63;5.90;;;;;;;;;;4884597;29;20279;-82
2022/04/02 00:24:03;;;;;;;5.20;4.85;;;;;;;;;;4906460;29;20501;-80
2022/04/02 00:26:29;;;;;;;4.50;4.30;;;;;;;;;;4890918;29;20207;-81
2022/04/02 00:28:55;;;;;;;5.17;4.70;;;;;;;;;;4874728;29;20267;-80
2022/04/02 00:31:22;;;;;;;5.40;5.10;;;;;;;;;;4876264;29;20412;-80
2022/04/02 00:33:48;;;;;;;5.03;4.72;;;;;;;;;;4900546;29;20879;-80
2022/04/02 00:36:15;;;;;;;5.03;4.72;;;;;;;;;;4904662;29;20283;-80
2022/04/02 00:38:41;;;;;;;4.80;4.55;;;;;;;;;;4897134;29;20392;-80
2022/04/02 00:41:08;;;;;;;4.70;4.35;;;;;;;;;;4905028;29;20195;-81
2022/04/02 00:43:42;;;;;;;4.65;4.40;;;;;;;;;;4893261;29;20263;-81
2022/04/02 00:46:12;;;;;;;4.43;4.32;;;;;;;;;;4896951;29;20187;-80
2022/04/02 00:48:39;;;;;;;4.75;4.45;;;;;;;;;;4893227;29;20260;-80
2022/04/02 00:51:06;;;;;;;5.20;4.70;;;;;;;;;;4891928;29;20244;-81
2022/04/02 00:53:33;;;;;;;4.30;4.10;;;;;;;;;;4874335;29;20695;-80
2022/04/02 00:56:00;;;;;;;4.10;3.90;;;;;;;;;;4892318;29;20562;-81
2022/04/02 00:58:26;;;;;;;5.05;4.38;;;;;;;;;;4897984;29;20608;-80
2022/04/02 01:00:52;;;;;;;4.43;3.90;;;;;;;;;;4882444;29;20292;-80
2022/04/02 01:03:19;;;;;;;6.18;3.28;;;;;;;;;;4893309;29;20210;-81
2022/04/02 01:05:45;;;;;;;3.78;3.58;;;;;;;;;;4899027;29;20195;-82
2022/04/02 01:08:11;;;;;;;2.80;2.70;;;;;;;;;;4890323;29;20637;-81
2022/04/02 01:10:39;;;;;;;5.40;3.65;;;;;;;;;;4906884;29;20399;-80
2022/04/02 01:13:05;;;;;;;3.85;3.55;;;;;;;;;;4893577;29;20216;-80
2022/04/02 01:15:31;;;;;;;9.85;3.33;;;;;;;;;;4903907;29;20215;-81
2022/04/02 01:17:57;;;;;;;3.53;3.40;;;;;;;;;;4897958;29;20671;-81
2022/04/02 01:20:24;;;;;;;4.43;3.05;;;;;;;;;;4897842;29;20725;-79
2022/04/02 01:22:50;;;;;;;3.13;2.95;;;;;;;;;;4900173;29;20211;-82
2022/04/02 01:25:16;;;;;;;3.23;3.13;;;;;;;;;;4894480;29;20203;-79
2022/04/02 01:27:46;;;;;;;3.13;3.00;;;;;;;;;;4890534;29;20507;-80
2022/04/02 01:30:13;;;;;;;6.57;3.92;;;;;;;;;;4899390;29;20200;-79
2022/04/02 01:32:39;;;;;;;2.92;2.60;;;;;;;;;;4900549;29;20226;-80
2022/04/02 01:35:06;;;;;;;3.40;3.30;;;;;;;;;;4895648;29;20276;-80
2022/04/02 01:37:32;;;;;;;2.90;2.90;;;;;;;;;;4894282;29;20204;-80
2022/04/02 01:39:58;;;;;;;3.70;3.50;;;;;;;;;;4907235;29;20196;-80
2022/04/02 01:42:25;;;;;;;2.85;2.75;;;;;;;;;;4895141;29;20466;-80
2022/04/02 01:44:52;;;;;;;3.65;3.47;;;;;;;;;;4895437;29;20784;-80
2022/04/02 01:47:19;;;;;;;3.15;3.05;;;;;;;;;;4900589;29;20209;-81
2022/04/02 01:49:46;;;;;;;3.55;3.08;;;;;;;;;;4897529;29;20196;-81
2022/04/02 01:52:19;;;;;;;3.10;2.90;;;;;;;;;;4899284;29;20215;-80
2022/04/02 01:54:45;;;;;;;3.92;2.88;;;;;;;;;;4895599;29;20201;-80
2022/04/02 01:57:14;;;;;;;2.80;2.70;;;;;;;;;;4893567;29;20197;-80
2022/04/02 01:59:44;;;;;;;3.03;2.92;;;;;;;;;;4895533;29;20207;-80
2022/04/02 02:02:10;;;;;;;3.40;3.20;;;;;;;;;;4906005;29;20224;-81
2022/04/02 02:04:36;;;;;;;4.00;3.67;;;;;;;;;;4885153;29;20184;-80
2022/04/02 02:07:03;;;;;;;2.92;2.70;;;;;;;;;;4885013;29;20201;-79
2022/04/02 02:09:29;;;;;;;2.70;2.70;;;;;;;;;;4909156;29;20231;-81
2022/04/02 02:11:56;;;;;;;2.97;2.88;;;;;;;;;;4882987;29;20199;-81
2022/04/02 02:14:22;;;;;;;3.20;2.97;;;;;;;;;;4902598;29;20247;-81
2022/04/02 02:16:48;;;;;;;2.67;2.47;;;;;;;;;;4904894;29;20239;-80
2022/04/02 02:19:17;;;;;;;2.95;2.75;;;;;;;;;;4897634;29;20524;-80
2022/04/02 02:21:43;;;;;;;2.42;2.33;;;;;;;;;;4899137;29;20197;-80
2022/04/02 02:24:09;;;;;;;2.78;2.58;;;;;;;;;;4899092;29;20700;-82
2022/04/02 02:26:35;;;;;;;2.93;2.80;;;;;;;;;;4896096;29;20202;-81
2022/04/02 02:29:04;;;;;;;3.10;3.00;;;;;;;;;;4902745;29;20425;-80
2022/04/02 02:31:30;;;;;;;2.83;2.72;;;;;;;;;;4891545;29;20199;-80
2022/04/02 02:36:43;;;;;;;2.70;2.60;;;;;;;;;;4902578;29;20210;-80
2022/04/02 02:39:09;;;;;;;3.10;2.63;;;;;;;;;;4907945;29;20274;-80
2022/04/02 02:41:36;;;;;;;3.03;2.60;;;;;;;;;;4896383;29;20197;-79
2022/04/02 02:44:02;;;;;;;2.78;2.67;;;;;;;;;;4907674;29;20541;-80
2022/04/02 02:46:28;;;;;;;2.10;2.10;;;;;;;;;;4915151;29;20194;-81
2022/04/02 02:48:54;;;;;;;1.90;1.90;;;;;;;;;;4909813;29;20793;-81
2022/04/02 02:51:20;;;;;;;2.85;2.72;;;;;;;;;;4887546;29;20406;-80
2022/04/02 02:53:46;;;;;;;3.00;2.80;;;;;;;;;;4892889;29;20240;-81
2022/04/02 02:56:12;;;;;;;3.23;3.03;;;;;;;;;;4900149;29;20893;-81
2022/04/02 02:58:38;;;;;;;2.40;2.40;;;;;;;;;;4910166;29;20432;-79
2022/04/02 03:01:04;;;;;;;2.28;2.08;;;;;;;;;;4893685;29;20182;-81
2022/04/02 03:03:31;;;;;;;3.58;3.40;;;;;;;;;;4905803;29;20187;-82
2022/04/02 03:05:57;;;;;;;2.50;2.50;;;;;;;;;;4895523;29;20199;-81
2022/04/02 03:08:23;;;;;;;3.00;2.90;;;;;;;;;;4878662;29;20726;-81
2022/04/02 03:10:49;;;;;;;2.65;2.65;;;;;;;;;;4895056;29;20196;-82
2022/04/02 03:13:16;;;;;;;3.08;2.88;;;;;;;;;;4888812;29;20227;-80
2022/04/02 03:15:42;;;;;;;2.75;2.65;;;;;;;;;;4886513;29;20257;-80
2022/04/02 03:18:08;;;;;;;2.28;2.25;;;;;;;;;;4890404;29;20228;-81
2022/04/02 03:20:35;;;;;;;2.80;2.70;;;;;;;;;;4898548;29;20196;-80
2022/04/02 03:23:02;;;;;;;2.67;2.58;;;;;;;;;;4893408;29;20304;-81
2022/04/02 03:25:28;;;;;;;2.78;2.67;;;;;;;;;;4892277;29;20320;-80
2022/04/02 03:27:54;;;;;;;2.28;2.28;;;;;;;;;;4890214;29;20331;-82
2022/04/02 03:30:21;;;;;;;2.00;1.95;;;;;;;;;;4892134;29;20192;-80
2022/04/02 03:32:47;;;;;;;2.42;2.42;;;;;;;;;;4890428;29;20231;-79
2022/04/02 03:35:14;;;;;;;2.70;2.70;;;;;;;;;;4891530;29;20197;-80
2022/04/02 03:37:41;;;;;;;2.30;2.30;;;;;;;;;;4890281;29;20203;-79
2022/04/02 03:40:08;;;;;;;3.22;2.35;;;;;;;;;;4874692;29;20349;-80
2022/04/02 03:42:35;;;;;;;2.58;2.30;;;;;;;;;;4904559;29;20203;-82
2022/04/02 03:45:01;;;;;;;2.75;2.35;;;;;;;;;;4874892;29;20188;-80
2022/04/02 03:47:27;;;;;;;2.20;2.20;;;;;;;;;;4890162;29;20618;-82
2022/04/02 03:49:53;;;;;;;3.40;2.27;;;;;;;;;;4891395;29;20407;-81
2022/04/02 03:52:19;;;;;;;3.20;3.10;;;;;;;;;;4889854;29;20427;-80
2022/04/02 03:54:45;;;;;;;2.33;2.20;;;;;;;;;;4896344;23;20481;-87
2022/04/02 03:57:12;;;;;;;2.80;2.40;;;;;;;;;;4912558;29;20473;-87
2022/04/02 03:59:39;;;;;;;3.45;2.20;;;;;;;;;;4906746;29;20455;-88
2022/04/02 04:02:05;;;;;;;2.35;2.17;;;;;;;;;;4913185;29;20564;-87
2022/04/02 04:04:34;;;;;;;2.33;2.22;;;;;;;;;;4895606;29;20199;-87
2022/04/02 04:07:00;;;;;;;1.95;1.95;;;;;;;;;;4907066;29;20192;-87
2022/04/02 04:09:27;;;;;;;2.15;2.15;;;;;;;;;;4912007;29;20247;-87
2022/04/02 04:11:54;;;;;;;2.70;2.60;;;;;;;;;;4890413;29;20596;-87
2022/04/02 04:14:20;;;;;;;2.85;2.72;;;;;;;;;;4892950;29;20310;-88
2022/04/02 04:16:46;;;;;;;2.05;2.00;;;;;;;;;;4912806;29;20230;-87
2022/04/02 04:19:12;;;;;;;2.70;2.60;;;;;;;;;;4911882;29;20180;-87
2022/04/02 04:21:38;;;;;;;2.05;1.95;;;;;;;;;;4913228;29;20272;-88
2022/04/02 04:24:05;;;;;;;7.07;2.10;;;;;;;;;;4894302;29;20183;-87
2022/04/02 04:26:31;;;;;;;2.42;2.30;;;;;;;;;;4907990;29;20176;-88
2022/04/02 04:28:57;;;;;;;2.40;2.40;;;;;;;;;;4907376;29;20705;-87
2022/04/02 04:31:23;;;;;;;2.53;2.43;;;;;;;;;;4880666;29;20287;-87
2022/04/02 04:33:49;;;;;;;2.25;2.20;;;;;;;;;;4875336;29;20979;-87
2022/04/02 04:36:18;;;;;;;2.38;2.38;;;;;;;;;;4876247;29;20196;-88
2022/04/02 04:38:44;;;;;;;3.08;2.88;;;;;;;;;;4876424;29;20248;-88
2022/04/02 04:41:11;;;;;;;3.25;2.95;;;;;;;;;;4867501;29;20193;-88
2022/04/02 04:43:37;;;;;;;2.20;2.20;;;;;;;;;;4894694;29;20192;-87
2022/04/02 04:46:04;;;;;;;3.53;2.63;;;;;;;;;;4874627;29;20212;-87
2022/04/02 04:48:30;;;;;;;3.10;2.90;;;;;;;;;;4888144;29;20292;-87
2022/04/02 04:50:57;;;;;;;2.42;2.33;;;;;;;;;;4858651;29;20204;-88
2022/04/02 04:53:23;;;;;;;2.28;2.28;;;;;;;;;;4875443;29;20212;-87
2022/04/02 04:55:49;;;;;;;2.78;2.60;;;;;;;;;;4859931;29;20605;-87
2022/04/02 04:58:15;;;;;;;2.63;2.53;;;;;;;;;;4892684;29;20188;-87
2022/04/02 05:00:41;;;;;;;2.60;2.40;;;;;;;;;;4877830;29;21034;-86
2022/04/02 05:03:08;;;;;;;2.42;2.33;;;;;;;;;;4875234;29;20396;-87
2022/04/02 05:05:35;;;;;;;2.92;2.83;;;;;;;;;;4880919;29;20204;-87
2022/04/02 05:08:01;;;;;;;3.35;3.13;;;;;;;;;;4893828;29;20656;-87
2022/04/02 05:10:28;;;;;;;2.53;2.50;;;;;;;;;;4887376;29;20228;-87
2022/04/02 05:12:54;;;;;;;2.30;2.30;;;;;;;;;;4881829;29;20541;-87
2022/04/02 05:15:21;;;;;;;2.67;2.58;;;;;;;;;;4878244;29;20688;-91
2022/04/02 05:17:47;;;;;;;2.60;2.50;;;;;;;;;;4893274;29;20188;-92
2022/04/02 05:20:14;;;;;;;2.00;2.00;;;;;;;;;;4911138;29;20227;-92
2022/04/02 05:22:41;;;;;;;2.80;2.50;;;;;;;;;;4903055;29;20207;-91
2022/04/02 05:25:07;;;;;;;3.28;3.17;;;;;;;;;;4915299;29;20212;-90
2022/04/02 05:27:34;;;;;;;3.00;2.80;;;;;;;;;;4903447;29;20219;-91
2022/04/02 05:30:00;;;;;;;2.25;2.25;;;;;;;;;;4901221;29;20247;-92
2022/04/02 05:32:30;;;;;;;2.70;2.70;;;;;;;;;;4554706;29;9999862;-91
2022/04/02 05:34:58;;;;;;;2.50;2.40;;;;;;;;;;4901039;29;20186;-91
2022/04/02 05:37:35;;;;;;;3.47;3.20;;;;;;;;;;4907554;29;20202;-91
2022/04/02 05:40:04;;;;;;;2.58;2.58;;;;;;;;;;4888604;29;20192;-91
2022/04/02 05:42:30;;;;;;;3.05;2.85;;;;;;;;;;4884240;29;20671;-92
2022/04/02 05:44:57;;;;;;;8.43;6.85;;;;;;;;;;4908162;29;20193;-89
2022/04/02 05:47:42;;;;;;;2.90;2.70;;;;;;;;;;4887386;29;20194;-90
2022/04/02 05:50:10;;;;;;;2.60;2.25;;;;;;;;;;4881636;29;20188;-89
2022/04/02 05:52:39;;;;;;;5.00;3.42;;;;;;;;;;4891349;29;20216;-91
2022/04/02 05:55:09;;;;;;;3.05;2.72;;;;;;;;;;4889609;29;20220;-89
2022/04/02 05:57:37;;;;;;;2.72;2.60;;;;;;;;;;4907612;29;20595;-90
2022/04/02 06:00:06;;;;;;;3.13;3.00;;;;;;;;;;4897577;29;20208;-90
2022/04/02 06:02:32;;;;;;;3.88;3.58;;;;;;;;;;4891456;29;20197;-90
2022/04/02 06:04:58;;;;;;;2.92;2.35;;;;;;;;;;4872146;29;20193;-91
2022/04/02 06:07:24;;;;;;;3.63;3.33;;;;;;;;;;4902252;29;20905;-91
2022/04/02 06:09:50;;;;;;;2.88;2.78;;;;;;;;;;4875727;29;20188;-90
2022/04/02 06:12:19;;;;;;;3.25;3.15;;;;;;;;;;4904793;29;20186;-91
2022/04/02 06:14:45;;;;;;;3.10;3.05;;;;;;;;;;4907500;29;20178;-89
2022/04/02 06:17:11;;;;;;;3.95;3.70;;;;;;;;;;4907265;29;20240;-89
2022/04/02 06:19:37;;;;;;;3.00;2.90;;;;;;;;;;4888448;29;20197;-90
2022/04/02 06:22:06;;;;;;;3.90;3.25;;;;;;;;;;4878951;29;20209;-90
2022/04/02 06:24:37;;;;;;;2.90;2.78;;;;;;;;;;4890281;29;20199;-90
2022/04/02 06:27:07;;;;;;;4.15;2.75;;;;;;;;;;4898713;29;20667;-88
2022/04/02 06:29:34;;;;;;;3.38;3.25;;;;;;;;;;4912263;29;20213;-89
2022/04/02 06:32:02;;;;;;;2.88;2.75;;;;;;;;;;4902450;29;20196;-90
2022/04/02 06:34:29;;;;;;;3.53;3.00;;;;;;;;;;4891592;29;20216;-90
2022/04/02 06:36:58;;;;;;;2.75;2.65;;;;;;;;;;4884131;29;20550;-90
2022/04/02 06:39:24;;;;;;;2.13;2.13;;;;;;;;;;4876073;29;20205;-90
2022/04/02 06:41:50;;;;;;;2.40;2.30;;;;;;;;;;4891816;29;20244;-91
2022/04/02 06:44:16;;;;;;;2.80;2.70;;;;;;;;;;4911064;29;20893;-89
2022/04/02 06:46:42;;;;;;;4.63;3.90;;;;;;;;;;4867007;29;20786;-91
2022/04/02 06:49:11;;;;;;;3.00;2.78;;;;;;;;;;4889481;29;20181;-90
2022/04/02 06:51:38;;;;;;;3.25;3.15;;;;;;;;;;4887373;29;20186;-90
2022/04/02 06:54:09;;;;;;;2.67;2.63;;;;;;;;;;4903722;29;20295;-91
2022/04/02 06:56:37;;;;;;;3.35;3.25;;;;;;;;;;4896284;29;20193;-91
2022/04/02 06:59:03;;;;;;;3.28;3.15;;;;;;;;;;4881368;29;20186;-90
2022/04/02 07:01:49;;;;;;;;;;;;;;;;;;;;;
2022/04/02 07:04:23;;;;;;;2.80;2.60;;;;;;;;;;4877731;29;20190;-91
2022/04/02 07:07:11;;;;;;;3.10;2.90;;;;;;;;;;4884248;29;20253;-91
2022/04/02 07:10:15;;;;;;;2.95;2.92;;;;;;;;;;4912816;29;20236;-87
2022/04/02 07:13:23;;;;;;;3.80;3.58;;;;;;;;;;4904894;29;20219;-90
2022/04/02 07:16:26;;;;;;;3.67;3.47;;;;;;;;;;4902910;29;20271;-91
2022/04/02 07:19:33;;;;;;;3.00;2.90;;;;;;;;;;4911243;29;20220;-89
2022/04/02 07:22:41;;;;;;;2.97;2.88;;;;;;;;;;4914020;29;20181;-91
2022/04/02 07:25:50;;;;;;;2.55;2.50;;;;;;;;;;4913755;29;20200;-92
2022/04/02 07:28:56;;;;;;;3.65;3.40;;;;;;;;;;4912738;29;20189;-88
2022/04/02 07:32:07;;;;;;;3.10;2.72;;;;;;;;;;4912855;29;20189;-91
2022/04/02 07:37:40;;;;;;;3.40;3.20;;;;;;;;;;4905649;29;20212;-85
2022/04/02 07:40:12;;;;;;;3.70;3.40;;;;;;;;;;4890786;29;20533;-83
2022/04/02 07:42:57;;;;;;;3.70;3.40;;;;;;;;;;4909595;29;20187;-82
2022/04/02 07:45:28;;;;;;;3.83;3.63;;;;;;;;;;4896806;29;20964;-86
2022/04/02 07:47:58;;;;;;;4.00;3.90;;;;;;;;;;4929538;29;20175;-84
2022/04/02 07:50:25;;;;;;;3.95;3.75;;;;;;;;;;4918285;29;20206;-82
2022/04/02 07:52:52;;;;;;;3.10;2.75;;;;;;;;;;4891567;29;20232;-82
2022/04/02 07:55:19;;;;;;;3.30;3.03;;;;;;;;;;4917160;29;20701;-82
2022/04/02 07:57:49;;;;;;;4.10;4.07;;;;;;;;;;4922869;29;20192;-83
2022/04/02 08:00:19;;;;;;;4.18;3.97;;;;;;;;;;4894561;29;20191;-84
2022/04/02 08:02:46;;;;;;;3.30;3.00;;;;;;;;;;4901082;29;20204;-84
2022/04/02 08:05:17;;;;;;;4.72;4.05;;;;;;;;;;4903403;29;20211;-84
2022/04/02 08:07:44;;;;;;;3.97;3.50;;;;;;;;;;4923917;29;20183;-84
2022/04/02 08:10:12;;;;;;;2.60;2.47;;;;;;;;;;4559608;29;10000232;-81
2022/04/02 08:12:41;;;;;;;3.10;3.00;;;;;;;;;;4899070;29;20220;-81
2022/04/02 08:15:18;;;;;;;3.10;3.00;;;;;;;;;;4888123;29;20491;-80
2022/04/02 08:17:45;;;;;;;2.90;2.80;;;;;;;;;;4888814;29;20255;-82
2022/04/02 08:20:12;;;;;;;3.15;3.15;;;;;;;;;;4887571;29;20216;-84
2022/04/02 08:22:38;;;;;;;3.80;3.60;;;;;;;;;;4891979;29;20204;-82
2022/04/02 08:25:05;;;;;;;3.17;3.08;;;;;;;;;;4878631;29;20203;-81
2022/04/02 08:27:46;;;;;;;3.53;3.33;;;;;;;;;;4894610;29;20597;-82
2022/04/02 08:30:17;;;;;;;3.60;3.60;;;;;;;;;;4872045;29;20212;-82
2022/04/02 08:33:10;;;;;;;6.70;3.72;;;;;;;;;;4891878;29;20559;-79
2022/04/02 08:35:44;;;;;;;4.03;3.70;;;;;;;;;;4872205;29;20489;-83
2022/04/02 08:38:28;;;;;;;3.25;3.10;;;;;;;;;;4890442;29;20248;-83
2022/04/02 08:41:13;;;;;;;3.00;2.80;;;;;;;;;;4895528;29;20184;-82
2022/04/02 08:43:42;;;;;;;2.70;2.60;;;;;;;;;;4880434;29;20208;-84
2022/04/02 08:46:27;;;;;;;2.78;2.65;;;;;;;;;;4896482;29;20192;-82
2022/04/02 08:49:00;;;;;;;3.20;3.00;;;;;;;;;;4893658;29;20204;-83
2022/04/02 08:51:26;;;;;;;3.17;2.97;;;;;;;;;;4896016;29;20457;-82
2022/04/02 08:53:57;;;;;;;2.83;2.70;;;;;;;;;;4874346;29;20292;-82
2022/04/02 08:56:25;;;;;;;3.60;2.92;;;;;;;;;;4876928;29;20425;-82
2022/04/02 08:58:56;;;;;;;3.45;3.28;;;;;;;;;;4894388;29;20196;-82
2022/04/02 09:01:25;;;;;;;3.40;3.20;;;;;;;;;;4897820;29;20548;-83
2022/04/02 09:03:51;;;;;;;3.42;3.30;;;;;;;;;;4893702;29;20180;-82
2022/04/02 09:06:49;;;;;;;5.43;3.42;;;;;;;;;;4892640;29;20172;-84
2022/04/02 09:09:28;;;;;;;5.75;3.90;;;;;;;;;;4889978;29;20283;-81
2022/04/02 09:12:13;;;;;;;3.50;3.30;;;;;;;;;;4874807;29;20459;-84
2022/04/02 09:14:57;;;;;;;4.00;3.80;;;;;;;;;;4891020;29;20560;-83
2022/04/02 09:17:37;;;;;;;3.67;3.58;;;;;;;;;;4891660;29;20528;-83
2022/04/02 09:20:09;;;;;;;7.93;3.30;;;;;;;;;;4888375;29;20196;-79
2022/04/02 09:22:36;;;;;;;5.55;3.05;;;;;;;;;;4891655;29;20432;-83
2022/04/02 09:25:05;;;;;;;3.30;3.05;;;;;;;;;;4871861;29;20204;-81
2022/04/02 09:27:43;;;;;;;3.22;2.97;;;;;;;;;;4886590;29;20566;-80
2022/04/02 09:30:22;;;;;;;2.90;2.80;;;;;;;;;;4896284;29;20204;-86
2022/04/02 09:33:07;;;;;;;4.00;3.80;;;;;;;;;;4876903;29;20213;-84
2022/04/02 09:35:34;;;;;;;3.03;2.83;;;;;;;;;;4890085;29;20223;-83
2022/04/02 09:38:03;;;;;;;3.58;3.47;;;;;;;;;;4897792;29;20541;-87
2022/04/02 09:40:46;;;;;;;4.97;3.60;;;;;;;;;;4552679;29;9999957;-79
2022/04/02 09:43:24;;;;;;;4.47;3.30;;;;;;;;;;4888198;29;20185;-83
2022/04/02 09:46:08;;;;;;;6.55;4.30;;;;;;;;;;4886781;29;20272;-83
2022/04/02 09:48:53;;;;;;;3.97;3.13;;;;;;;;;;4887827;29;20204;-81
2022/04/02 09:51:21;;;;;;;2.88;2.88;;;;;;;;;;4868977;29;20787;-81
2022/04/02 09:54:01;;;;;;;5.57;3.30;;;;;;;;;;4890962;29;20244;-82
2022/04/02 09:56:31;;;;;;;3.63;3.43;;;;;;;;;;4893337;29;20636;-82
2022/04/02 09:59:07;;;;;;;5.43;4.00;;;;;;;;;;4875269;29;20451;-83
2022/04/02 10:01:42;;;;;;;3.10;3.07;;;;;;;;;;4874576;29;20598;-80
2022/04/02 10:04:17;;;;;;;3.60;3.50;;;;;;;;;;4899110;29;20474;-83
2022/04/02 10:06:47;;;;;;;3.60;3.50;;;;;;;;;;4874383;29;20535;-83
2022/04/02 10:09:18;;;;;;;3.60;3.30;;;;;;;;;;4895247;29;20271;-82
2022/04/02 10:12:01;;;;;;;3.17;3.17;;;;;;;;;;4894374;29;20433;-82
2022/04/02 10:14:34;;;;;;;3.40;3.20;;;;;;;;;;4878447;29;20197;-81
2022/04/02 10:17:04;;;;;;;3.57;3.37;;;;;;;;;;4881781;29;20981;-82
2022/04/02 10:19:41;;;;;;;3.40;3.30;;;;;;;;;;4914848;29;20442;-81
2022/04/02 10:22:09;;;;;;;3.77;3.53;;;;;;;;;;4889236;29;20436;-81
2022/04/02 10:24:37;;;;;;;3.93;3.73;;;;;;;;;;4909135;29;20503;-82
2022/04/02 10:27:04;;;;;;;4.03;3.83;;;;;;;;;;4910208;29;20457;-82
2022/04/02 10:29:48;;;;;;;3.80;3.60;;;;;;;;;;4894691;29;20485;-82
2022/04/02 10:32:40;;;;;;;4.17;3.87;;;;;;;;;;4895363;29;20763;-82
2022/04/02 10:35:07;;;;;;;3.83;3.63;;;;;;;;;;4875651;29;20512;-82
2022/04/02 10:37:49;;;;;;;4.70;4.50;;;;;;;;;;4873452;29;20429;-81
2022/04/02 10:40:20;;;;;;;3.90;3.75;;;;;;;;;;4894004;29;20417;-82
2022/04/02 10:42:55;;;;;;;3.67;3.53;;;;;;;;;;4876530;29;20284;-81
2022/04/02 10:45:26;;;;;;;3.90;3.80;;;;;;;;;;4892966;29;20176;-81
2022/04/02 10:48:08;;;;;;;5.38;5.07;;;;;;;;;;4554088;29;10000341;-81
2022/04/02 10:50:35;;;;;;;4.53;4.25;;;;;;;;;;4876777;29;20197;-81
2022/04/02 10:53:01;;;;;;;4.60;4.40;;;;;;;;;;4903081;29;20617;-81
2022/04/02 10:55:28;;;;;;;5.03;4.18;;;;;;;;;;4889217;29;20227;-81
2022/04/02 10:57:56;;;;;;;5.10;4.78;;;;;;;;;;4886698;29;20761;-81
2022/04/02 11:00:25;;;;;;;4.40;3.80;;;;;;;;;;4862803;29;20269;-82
2022/04/02 11:03:01;;;;;;;3.70;3.40;;;;;;;;;;4889290;29;20862;-83
2022/04/02 11:05:29;;;;;;;4.13;4.03;;;;;;;;;;4876785;29;20477;-81
2022/04/02 11:08:04;;;;;;;3.17;3.08;;;;;;;;;;4879355;29;20204;-83
2022/04/02 11:10:31;;;;;;;3.97;3.88;;;;;;;;;;4890577;29;20183;-82
2022/04/02 11:13:00;;;;;;;8.70;4.03;;;;;;;;;;4894261;29;20282;-82
2022/04/02 11:15:31;;;;;;;4.07;3.60;;;;;;;;;;4884502;29;20275;-85
2022/04/02 11:18:01;;;;;;;4.13;3.80;;;;;;;;;;4874661;29;20453;-81
2022/04/02 11:20:29;;;;;;;4.23;4.13;;;;;;;;;;4875281;29;20240;-80
2022/04/02 11:22:58;;;;;;;5.35;4.93;;;;;;;;;;4890414;29;20528;-80
2022/04/02 11:25:24;;;;;;;4.70;4.50;;;;;;;;;;4892781;29;20184;-80
2022/04/02 11:27:55;;;;;;;4.97;4.63;;;;;;;;;;4871505;29;20192;-80
2022/04/02 11:30:21;;;;;;;5.75;5.20;;;;;;;;;;4893196;29;20204;-81
2022/04/02 11:32:48;;;;;;;4.88;4.65;;;;;;;;;;4890634;29;20276;-81
2022/04/02 11:35:15;;;;;;;4.85;4.68;;;;;;;;;;4891204;29;20172;-81
2022/04/02 11:37:46;;;;;;;5.72;5.38;;;;;;;;;;4894441;29;20164;-83
2022/04/02 11:40:15;;;;;;;4.95;4.65;;;;;;;;;;4892049;29;20686;-81
2022/04/02 11:42:46;;;;;;;5.05;4.75;;;;;;;;;;4892452;29;20236;-81
2022/04/02 11:45:17;;;;;;;5.40;5.00;;;;;;;;;;4891254;29;20255;-82
2022/04/02 11:47:47;;;;;;;4.60;4.40;;;;;;;;;;4890936;29;20176;-82
2022/04/02 11:50:14;;;;;;;7.28;5.03;;;;;;;;;;4873786;29;20172;-83
2022/04/02 11:52:51;;;;;;;5.32;4.85;;;;;;;;;;4875370;29;20196;-81
2022/04/02 11:55:18;;;;;;;4.95;4.65;;;;;;;;;;4890662;29;20671;-82
2022/04/02 11:57:59;;;;;;;5.57;5.28;;;;;;;;;;4874999;29;20176;-83
2022/04/02 12:00:27;;;;;;;5.10;4.60;;;;;;;;;;4889153;29;20620;-82
2022/04/02 12:02:53;;;;;;;4.50;4.40;;;;;;;;;;4875314;29;20263;-81
2022/04/02 12:05:22;;;;;;;5.70;4.95;;;;;;;;;;4891337;29;20208;-81
2022/04/02 12:07:52;;;;;;;5.15;4.95;;;;;;;;;;4874900;29;20590;-81
2022/04/02 12:10:28;;;;;;;5.70;5.38;;;;;;;;;;4889995;29;20180;-82
2022/04/02 12:12:55;;;;;;;7.18;4.93;;;;;;;;;;4874241;29;20187;-82
2022/04/02 12:15:22;;;;;;;5.22;5.00;;;;;;;;;;4889521;29;20200;-82
2022/04/02 12:17:52;;;;;;;4.70;4.50;;;;;;;;;;4871239;29;20577;-81
2022/04/02 12:20:28;;;;;;;3.88;3.65;;;;;;;;;;4894434;29;20679;-81
2022/04/02 12:23:06;;;;;;;4.53;4.30;;;;;;;;;;4871095;29;20216;-80
2022/04/02 12:25:33;;;;;;;4.90;4.70;;;;;;;;;;4885724;29;20682;-82
2022/04/02 12:28:00;;;;;;;6.90;5.63;;;;;;;;;;4893477;29;20283;-81
2022/04/02 12:30:31;;;;;;;5.07;4.68;;;;;;;;;;4896782;29;20252;-81
2022/04/02 12:33:07;;;;;;;4.38;4.28;;;;;;;;;;4891661;29;20200;-79
2022/04/02 12:35:37;;;;;;;4.53;4.13;;;;;;;;;;4898722;29;20224;-81
2022/04/02 12:38:05;;;;;;;4.82;4.53;;;;;;;;;;4892362;29;20346;-80
2022/04/02 12:40:40;;;;;;;4.55;4.25;;;;;;;;;;4892894;29;20189;-81
2022/04/02 12:43:09;;;;;;;4.60;4.40;;;;;;;;;;4891822;29;20223;-80
2022/04/02 12:45:36;;;;;;;5.20;4.90;;;;;;;;;;4533179;29;10000559;-82
2022/04/02 12:48:02;;;;;;;4.32;4.20;;;;;;;;;;4890744;29;20196;-81
2022/04/02 12:50:30;;;;;;;5.00;4.63;;;;;;;;;;4869026;29;20304;-81
2022/04/02 12:52:56;;;;;;;4.55;4.45;;;;;;;;;;4888385;29;20511;-81
2022/04/02 12:55:23;;;;;;;4.30;4.20;;;;;;;;;;4888752;29;20215;-79
2022/04/02 12:58:07;;;;;;;4.00;3.75;;;;;;;;;;4889337;29;20690;-81
2022/04/02 13:00:35;;;;;;;7.75;7.25;;;;;;;;;;4888186;29;20196;-81
2022/04/02 13:03:01;;;;;;;4.53;4.10;;;;;;;;;;4888059;29;20260;-82
2022/04/02 13:05:44;;;;;;;4.82;4.40;;;;;;;;;;4899047;29;20220;-82
2022/04/02 13:08:14;;;;;;;5.20;5.00;;;;;;;;;;4874527;29;20180;-80
2022/04/02 13:10:43;;;;;;;4.47;4.28;;;;;;;;;;4897166;29;20200;-80
2022/04/02 13:13:11;;;;;;;4.93;4.53;;;;;;;;;;4871747;29;20264;-81
2022/04/02 13:15:38;;;;;;;4.75;4.43;;;;;;;;;;4892995;29;20459;-82
2022/04/02 13:20:59;;;;;;;8.50;4.18;;;;;;;;;;4884266;29;20308;-82
2022/04/02 13:23:46;;;;;;;3.97;3.88;;;;;;;;;;4890828;29;20275;-81
2022/04/02 13:26:14;;;;;;;4.77;4.47;;;;;;;;;;4891281;29;20211;-80
2022/04/02 13:28:43;;;;;;;3.63;3.53;;;;;;;;;;4894870;29;20428;-80
2022/04/02 13:31:09;;;;;;;4.07;3.77;;;;;;;;;;4893239;29;20540;-78
2022/04/02 13:33:47;;;;;;;3.70;3.60;;;;;;;;;;4878570;29;20440;-81
2022/04/02 13:36:20;;;;;;;4.40;4.20;;;;;;;;;;4890070;29;20471;-80
2022/04/02 13:38:56;;;;;;;4.07;3.87;;;;;;;;;;4912699;29;20826;-80
2022/04/02 13:41:26;;;;;;;4.93;4.57;;;;;;;;;;4894903;29;20486;-81
2022/04/02 13:43:57;;;;;;;3.80;3.70;;;;;;;;;;4912047;29;20475;-82
2022/04/02 13:46:27;;;;;;;3.90;3.80;;;;;;;;;;4885502;29;20542;-82
2022/04/02 13:48:58;;;;;;;3.80;3.70;;;;;;;;;;4894853;29;20432;-81
2022/04/02 13:51:48;;;;;;;3.83;3.63;;;;;;;;;;4902742;29;20499;-81
2022/04/02 13:54:34;;;;;;;4.10;3.80;;;;;;;;;;4897404;29;20990;-81
2022/04/02 13:57:06;;;;;;;8.10;4.43;;;;;;;;;;4873238;29;20440;-82
2022/04/02 13:59:39;;;;;;;4.23;4.03;;;;;;;;;;4887501;29;20441;-81
2022/04/02 14:02:06;;;;;;;4.00;3.70;;;;;;;;;;4901523;29;20836;-81
2022/04/02 14:04:38;;;;;;;4.50;4.18;;;;;;;;;;4902194;29;20468;-80
2022/04/02 14:07:06;;;;;;;6.47;4.27;;;;;;;;;;4894400;29;20559;-80
2022/04/02 14:09:34;;;;;;;4.60;4.20;;;;;;;;;;4886965;29;20836;-79
2022/04/02 14:12:01;;;;;;;4.68;4.38;;;;;;;;;;4873520;29;20451;-80
2022/04/02 14:14:31;;;;;;;3.58;3.40;;;;;;;;;;4895526;29;20284;-80
2022/04/02 14:17:05;;;;;;;3.88;3.75;;;;;;;;;;4892104;29;20290;-80
2022/04/02 14:19:52;;;;;;;3.85;3.65;;;;;;;;;;4881967;29;20193;-82
2022/04/02 14:22:20;;;;;;;3.90;3.67;;;;;;;;;;4895686;29;20291;-80
2022/04/02 14:24:55;;;;;;;3.50;3.40;;;;;;;;;;4873170;29;20480;-81
2022/04/02 14:27:30;;;;;;;3.90;3.57;;;;;;;;;;4876383;29;20218;-81
2022/04/02 14:29:59;;;;;;;4.27;3.50;;;;;;;;;;4889873;29;20434;-82
2022/04/02 14:32:44;;;;;;;3.20;3.10;;;;;;;;;;4889612;29;20863;-82
2022/04/02 14:35:14;;;;;;;3.47;3.37;;;;;;;;;;4889086;29;20429;-81
2022/04/02 14:37:40;;;;;;;3.83;3.47;;;;;;;;;;4879978;29;20464;-81
2022/04/02 14:40:06;;;;;;;3.87;3.67;;;;;;;;;;4881592;29;20426;-81
2022/04/02 14:42:38;;;;;;;3.93;3.73;;;;;;;;;;4905125;29;20811;-80
2022/04/02 14:45:07;;;;;;;3.33;3.10;;;;;;;;;;4895452;29;20459;-82
2022/04/02 14:47:37;;;;;;;3.10;2.90;;;;;;;;;;4871725;29;20459;-80
2022/04/02 14:50:21;;;;;;;3.13;2.70;;;;;;;;;;4893693;29;20806;-79
2022/04/02 14:52:57;;;;;;;3.13;2.97;;;;;;;;;;4898511;29;20445;-79
2022/04/02 14:55:41;;;;;;;3.47;3.27;;;;;;;;;;4894423;29;20449;-80
2022/04/02 14:58:07;;;;;;;2.83;2.72;;;;;;;;;;4896430;29;20456;-80
2022/04/02 15:00:42;;;;;;;3.65;3.45;;;;;;;;;;4885750;29;20196;-80
2022/04/02 15:03:08;;;;;;;3.40;3.30;;;;;;;;;;4891847;29;20220;-81
2022/04/02 15:05:37;;;;;;;3.73;3.53;;;;;;;;;;4883851;29;20437;-81
2022/04/02 15:08:21;;;;;;;3.07;2.97;;;;;;;;;;4890682;29;20460;-82
2022/04/02 15:10:49;;;;;;;3.57;3.33;;;;;;;;;;4889868;29;20940;-83
2022/04/02 15:13:23;;;;;;;3.22;3.22;;;;;;;;;;4888723;29;20453;-83